Time;durP1;ratioP1;P1;durP2;ratioP2;P2;SDS_P1;SDS_P2;PMS_P1;PMS_P2;Temp;Humidity;BMP_temperature;BMP_pressure;BME280_temperature;BME280_humidity;BME280_pressure;Samples;Min_cycle;Max_cycle;Signal;HPM_P1;HPM_P2
2023/06/05 00:01:54;;;;;;;;;;;;;;;19.41;32.99;102038.78;7354252;19;22009;-60
2023/06/05 00:04:20;;;;;;;;;;;;;;;19.36;33.24;102032.78;7353947;19;19926;-61
2023/06/05 00:06:46;;;;;;;;;;;;;;;19.32;33.04;102041.81;7355107;19;20387;-61
2023/06/05 00:09:13;;;;;;;;;;;;;;;19.27;33.12;102038.47;7355425;19;19923;-61
2023/06/05 00:11:38;;;;;;;;;;;;;;;19.22;33.46;102037.78;7356525;19;20540;-61
2023/06/05 00:14:05;;;;;;;;;;;;;;;19.16;33.63;102025.63;7358152;19;19914;-61
2023/06/05 00:16:30;;;;;;;;;;;;;;;19.12;33.37;102031.97;7354286;19;20591;-60
2023/06/05 00:18:56;;;;;;;;;;;;;;;19.07;33.55;102036.56;7358311;19;19918;-60
2023/06/05 00:21:22;;;;;;;;;;;;;;;19.02;33.50;102025.28;7357066;19;19929;-60
2023/06/05 00:23:47;;;;;;;;;;;;;;;18.96;33.91;102025.47;7352714;19;20749;-61
2023/06/05 00:26:12;;;;;;;;;;;;;;;18.90;33.52;102022.13;7354575;19;19927;-61
2023/06/05 00:28:38;;;;;;;;;;;;;;;18.85;33.93;102024.09;7353588;19;20277;-61
2023/06/05 00:31:04;;;;;;;;;;;;;;;18.81;34.05;102021.63;7357200;19;19919;-60
2023/06/05 00:33:30;;;;;;;;;;;;;;;18.77;33.65;102020.88;7357049;19;20476;-61
2023/06/05 00:35:55;;;;;;;;;;;;;;;18.72;34.06;102022.81;7355264;19;20470;-60
2023/06/05 00:38:21;;;;;;;;;;;;;;;18.68;34.14;102021.19;7356898;19;19971;-60
2023/06/05 00:40:46;;;;;;;;;;;;;;;18.63;33.99;102023.09;7355589;19;20666;-60
2023/06/05 00:43:11;;;;;;;;;;;;;;;18.58;34.49;102019.75;7357411;19;19949;-61
2023/06/05 00:45:37;;;;;;;;;;;;;;;18.56;34.54;102018.97;7355787;19;20255;-60
2023/06/05 00:48:02;;;;;;;;;;;;;;;18.50;34.08;102020.03;7356760;19;19927;-61
2023/06/05 00:50:31;;;;;;;;;;;;;;;18.46;34.52;102020.19;7351971;19;20399;-61
2023/06/05 00:52:56;;;;;;;;;;;;;;;18.41;34.26;102015.91;7350566;19;19926;-60
2023/06/05 00:55:22;;;;;;;;;;;;;;;18.37;34.31;102018.72;7353475;19;19934;-60
2023/06/05 00:57:47;;;;;;;;;;;;;;;18.33;34.61;102014.44;7355381;19;19915;-61
2023/06/05 01:00:14;;;;;;;;;;;;;;;18.28;34.82;102026.97;7354100;19;19934;-60
2023/06/05 01:02:40;;;;;;;;;;;;;;;18.23;34.82;102008.59;7354537;19;19915;-60
2023/06/05 01:05:06;;;;;;;;;;;;;;;18.19;34.89;102016.69;7354248;19;19922;-60
2023/06/05 01:07:37;;;;;;;;;;;;;;;18.14;34.86;102014.19;7356482;19;19919;-60
2023/06/05 01:10:04;;;;;;;;;;;;;;;18.09;34.90;102016.13;7355828;19;20276;-61
2023/06/05 01:12:43;;;;;;;;;;;;;;;17.78;34.67;101980.13;7355778;19;20275;-60
2023/06/05 01:15:08;;;;;;;;;;;;;;;17.99;34.92;102015.56;7353269;19;19919;-60
2023/06/05 01:17:35;;;;;;;;;;;;;;;17.94;34.98;102019.28;7348711;19;19922;-60
2023/06/05 01:20:07;;;;;;;;;;;;;;;17.88;34.78;102009.75;7352936;19;19926;-60
2023/06/05 01:22:34;;;;;;;;;;;;;;;17.84;34.90;102019.59;7357253;19;19922;-61
2023/06/05 01:25:01;;;;;;;;;;;;;;;17.78;35.12;102013.63;7350925;19;20829;-60
2023/06/05 01:27:37;;;;;;;;;;;;;;;17.74;35.17;102020.81;7353477;19;19935;-60
2023/06/05 01:30:19;;;;;;;;;;;;;;;17.69;35.06;102013.88;7354049;19;19927;-60
2023/06/05 01:32:47;;;;;;;;;;;;;;;17.63;35.46;102007.88;7349795;19;19915;-61
2023/06/05 01:35:16;;;;;;;;;;;;;;;17.59;35.54;102014.19;7354644;19;20455;-60
2023/06/05 01:37:48;;;;;;;;;;;;;;;17.55;35.03;102009.03;7353040;19;19934;-59
2023/06/05 01:40:15;;;;;;;;;;;;;;;17.51;35.49;102012.69;7353769;19;20046;-60
2023/06/05 01:42:41;;;;;;;;;;;;;;;17.46;35.21;102009.31;7353811;19;19921;-60
2023/06/05 01:45:08;;;;;;;;;;;;;;;17.42;35.29;102013.81;7353418;19;19919;-60
2023/06/05 01:47:34;;;;;;;;;;;;;;;17.37;35.54;102006.03;7353550;19;19998;-61
2023/06/05 01:50:00;;;;;;;;;;;;;;;17.33;35.41;102009.66;7353831;19;20343;-60
2023/06/05 01:52:25;;;;;;;;;;;;;;;17.29;35.64;102008.06;7352154;19;20022;-61
2023/06/05 01:54:52;;;;;;;;;;;;;;;17.24;35.60;102004.69;7354842;19;20005;-60
2023/06/05 01:57:17;;;;;;;;;;;;;;;17.20;35.80;102013.59;7354233;19;19943;-61
2023/06/05 01:59:43;;;;;;;;;;;;;;;17.15;35.52;102004.94;7338913;19;19919;-61
2023/06/05 02:02:08;;;;;;;;;;;;;;;17.12;35.59;102007.66;7351736;19;19914;-61
2023/06/05 02:04:34;;;;;;;;;;;;;;;17.08;35.70;102009.56;7349913;19;19923;-60
2023/06/05 02:07:03;;;;;;;;;;;;;;;17.03;35.57;102005.28;7349441;19;19930;-60
2023/06/05 02:09:29;;;;;;;;;;;;;;;17.01;35.79;102007.13;7350280;19;19919;-60
2023/06/05 02:11:54;;;;;;;;;;;;;;;16.95;35.42;102002.03;7347570;19;19919;-60
2023/06/05 02:14:20;;;;;;;;;;;;;;;16.91;35.61;102008.28;7348308;19;19959;-61
2023/06/05 02:16:48;;;;;;;;;;;;;;;16.84;35.72;102008.47;7351811;19;19928;-60
2023/06/05 02:19:13;;;;;;;;;;;;;;;16.80;36.04;101998.91;7351461;19;19926;-60
2023/06/05 02:21:38;;;;;;;;;;;;;;;16.75;36.24;101998.16;7349450;19;19936;-61
2023/06/05 02:24:04;;;;;;;;;;;;;;;16.71;36.17;101999.16;7342124;19;20323;-60
2023/06/05 02:26:29;;;;;;;;;;;;;;;16.66;36.04;102008.06;7346983;19;19995;-60
2023/06/05 02:28:55;;;;;;;;;;;;;;;16.62;36.39;102004.63;7347072;19;19998;-60
2023/06/05 02:31:28;;;;;;;;;;;;;;;16.58;36.47;102003.00;7359369;19;19933;-61
2023/06/05 02:33:55;;;;;;;;;;;;;;;16.53;36.47;101999.63;7354389;19;19990;-60
2023/06/05 02:36:21;;;;;;;;;;;;;;;16.49;36.49;102004.13;7358510;19;21040;-61
2023/06/05 02:38:49;;;;;;;;;;;;;;;16.45;36.50;101997.19;7353905;19;19921;-60
2023/06/05 02:41:14;;;;;;;;;;;;;;;16.41;36.39;102000.81;7352745;19;19934;-60
2023/06/05 02:43:39;;;;;;;;;;;;;;;16.38;36.54;102000.03;7356507;19;19927;-60
2023/06/05 02:46:05;;;;;;;;;;;;;;;16.32;36.77;102004.56;7354552;19;19923;-60
2023/06/05 02:48:30;;;;;;;;;;;;;;;16.30;36.78;102002.84;7357552;19;19951;-61
2023/06/05 02:50:56;;;;;;;;;;;;;;;16.26;36.98;102002.06;7355264;19;20171;-57
2023/06/05 02:53:21;;;;;;;;;;;;;;;16.22;36.90;102005.72;7356941;19;19922;-60
2023/06/05 02:55:47;;;;;;;;;;;;;;;16.19;36.59;102015.44;7330880;19;19925;-60
2023/06/05 02:58:13;;;;;;;;;;;;;;;16.16;36.83;102004.97;7354453;19;19919;-60
2023/06/05 03:00:38;;;;;;;;;;;;;;;16.13;36.57;102020.88;7350761;19;19918;-61
2023/06/05 03:03:03;;;;;;;;;;;;;;;16.08;36.87;102015.72;7353749;19;20450;-60
2023/06/05 03:05:29;;;;;;;;;;;;;;;16.04;36.90;102012.28;7357169;19;19923;-61
2023/06/05 03:07:54;;;;;;;;;;;;;;;16.02;36.80;102015.88;7341660;19;20704;-60
2023/06/05 03:10:20;;;;;;;;;;;;;;;15.62;36.67;101950.09;7349817;19;19922;-60
2023/06/05 03:12:45;;;;;;;;;;;;;;;15.94;36.79;102016.03;7351652;19;19930;-60
2023/06/05 03:15:11;;;;;;;;;;;;;;;15.90;36.94;102014.38;7356920;19;19922;-60
2023/06/05 03:17:36;;;;;;;;;;;;;;;15.87;37.11;102011.84;7355682;19;20584;-59
2023/06/05 03:20:02;;;;;;;;;;;;;;;15.84;37.36;102009.25;7353884;19;20338;-61
2023/06/05 03:22:27;;;;;;;;;;;;;;;15.81;37.29;102004.06;7355156;19;19934;-61
2023/06/05 03:24:53;;;;;;;;;;;;;;;15.77;37.34;101998.00;7355193;19;19954;-61
2023/06/05 03:27:19;;;;;;;;;;;;;;;15.74;36.97;101998.06;7352261;19;19926;-61
2023/06/05 03:29:44;;;;;;;;;;;;;;;15.71;37.07;101992.91;7356018;19;19930;-60
2023/06/05 03:32:10;;;;;;;;;;;;;;;15.68;37.59;101992.97;7350165;19;19939;-60
2023/06/05 03:34:36;;;;;;;;;;;;;;;15.65;37.53;101981.63;7356282;19;19927;-61
2023/06/05 03:37:02;;;;;;;;;;;;;;;15.62;37.32;101987.81;7354286;19;19940;-60
2023/06/05 03:39:27;;;;;;;;;;;;;;;15.58;37.31;101986.13;7356391;19;19919;-61
2023/06/05 03:41:52;;;;;;;;;;;;;;;15.55;37.76;101983.56;7352193;19;19915;-60
2023/06/05 03:44:18;;;;;;;;;;;;;;;15.52;37.71;101986.28;7356208;19;19931;-60
2023/06/05 03:46:44;;;;;;;;;;;;;;;15.51;37.75;101984.53;7352261;19;19925;-60
2023/06/05 03:49:09;;;;;;;;;;;;;;;15.47;37.66;101977.63;7354821;19;19922;-60
2023/06/05 03:51:35;;;;;;;;;;;;;;;15.44;37.56;101977.69;7349101;19;19915;-60
2023/06/05 03:54:03;;;;;;;;;;;;;;;15.41;37.62;101983.00;7350256;19;19923;-61
2023/06/05 03:56:33;;;;;;;;;;;;;;;15.39;37.68;101980.41;7354265;19;19927;-60
2023/06/05 03:59:08;;;;;;;;;;;;;;;15.36;37.97;101979.59;7355052;19;20304;-60
2023/06/05 04:01:34;;;;;;;;;;;;;;;15.32;37.93;101978.84;7353314;19;19926;-61
2023/06/05 04:03:59;;;;;;;;;;;;;;;15.25;37.80;101962.28;7345527;19;21107;-61
2023/06/05 04:06:25;;;;;;;;;;;;;;;15.28;38.03;101975.41;7349457;19;19917;-61
2023/06/05 04:08:52;;;;;;;;;;;;;;;15.25;38.24;101967.56;7355043;19;19953;-61
2023/06/05 04:11:17;;;;;;;;;;;;;;;15.24;38.08;101975.50;7353500;19;20748;-61
2023/06/05 04:13:43;;;;;;;;;;;;;;;15.21;38.13;101979.06;7351588;19;19926;-61
2023/06/05 04:16:09;;;;;;;;;;;;;;;15.18;38.31;101979.13;7353183;19;19927;-61
2023/06/05 04:18:34;;;;;;;;;;;;;;;15.17;38.04;101982.66;7351238;19;20007;-60
2023/06/05 04:21:00;;;;;;;;;;;;;;;15.14;38.39;101980.09;7351705;19;20531;-60
2023/06/05 04:23:25;;;;;;;;;;;;;;;15.12;38.02;101981.03;7349463;19;20709;-60
2023/06/05 04:25:53;;;;;;;;;;;;;;;15.10;38.51;101982.81;7351676;19;19954;-61
2023/06/05 04:28:18;;;;;;;;;;;;;;;15.08;38.50;101984.63;7351181;19;20519;-58
2023/06/05 04:30:45;;;;;;;;;;;;;;;15.06;38.37;101989.91;7350860;19;19960;-61
2023/06/05 04:33:11;;;;;;;;;;;;;;;15.05;38.53;101990.78;7350550;19;20506;-60
2023/06/05 04:35:36;;;;;;;;;;;;;;;15.02;38.46;101988.25;7353010;19;19940;-60
2023/06/05 04:38:02;;;;;;;;;;;;;;;15.00;38.46;101987.38;7345803;19;19926;-59
2023/06/05 04:40:28;;;;;;;;;;;;;;;14.98;38.51;101984.78;7354130;19;19931;-60
2023/06/05 04:42:54;;;;;;;;;;;;;;;14.98;38.71;101989.19;7348947;19;19939;-60
2023/06/05 04:45:21;;;;;;;;;;;;;;;14.97;38.64;101992.72;7351398;19;19938;-61
2023/06/05 04:47:46;;;;;;;;;;;;;;;14.96;38.65;101991.00;7351930;19;19919;-60
2023/06/05 04:50:21;;;;;;;;;;;;;;;14.95;38.85;101990.16;7352263;19;19930;-60
2023/06/05 04:52:46;;;;;;;;;;;;;;;14.95;38.62;101995.41;7350891;19;19915;-60
2023/06/05 04:55:12;;;;;;;;;;;;;;;14.95;38.92;101997.13;7352659;19;19933;-60
2023/06/05 04:57:37;;;;;;;;;;;;;;;14.94;38.66;101992.78;7351009;19;19914;-60
2023/06/05 05:00:04;;;;;;;;;;;;;;;14.93;38.22;101993.69;7352558;19;19914;-61
2023/06/05 05:02:29;;;;;;;;;;;;;;;14.91;38.83;101988.47;7349161;19;19926;-60
2023/06/05 05:04:54;;;;;;;;;;;;;;;14.91;38.60;101992.84;7350688;19;19947;-60
2023/06/05 05:07:22;;;;;;;;;;;;;;;14.91;38.69;101996.34;7352385;19;19951;-60
2023/06/05 05:09:47;;;;;;;;;;;;;;;14.92;38.97;101999.84;7351762;19;19935;-61
2023/06/05 05:12:12;;;;;;;;;;;;;;;14.93;38.96;101997.19;7352796;19;19926;-61
2023/06/05 05:14:39;;;;;;;;;;;;;;;14.95;39.19;101994.50;7352395;19;19915;-61
2023/06/05 05:17:05;;;;;;;;;;;;;;;14.97;39.03;101995.34;7348863;19;19919;-60
2023/06/05 05:19:30;;;;;;;;;;;;;;;15.00;39.31;101992.66;7350847;19;19910;-61
2023/06/05 05:21:55;;;;;;;;;;;;;;;15.00;38.98;101992.66;7352691;19;19922;-60
2023/06/05 05:24:21;;;;;;;;;;;;;;;14.67;39.40;101937.22;7351678;19;20957;-61
2023/06/05 05:26:46;;;;;;;;;;;;;;;15.07;39.42;101998.69;7352847;19;19932;-60
2023/06/05 05:29:11;;;;;;;;;;;;;;;15.09;39.31;101997.72;7344857;19;20260;-60
2023/06/05 05:31:36;;;;;;;;;;;;;;;15.11;39.17;101990.69;7351303;19;19987;-60
2023/06/05 05:34:02;;;;;;;;;;;;;;;15.14;39.37;101995.88;7344385;19;20720;-60
2023/06/05 05:36:27;;;;;;;;;;;;;;;15.17;39.46;101990.56;7351284;19;19918;-60
2023/06/05 05:38:53;;;;;;;;;;;;;;;15.20;39.55;101994.88;7351943;19;20351;-61
2023/06/05 05:41:19;;;;;;;;;;;;;;;15.22;39.63;101999.22;7352026;19;19934;-60
2023/06/05 05:43:44;;;;;;;;;;;;;;;15.26;39.30;101994.75;7348313;19;19921;-61
2023/06/05 05:46:09;;;;;;;;;;;;;;;15.29;39.52;102000.81;7350936;19;19947;-60
2023/06/05 05:48:37;;;;;;;;;;;;;;;15.33;39.40;102001.63;7349882;19;19919;-60
2023/06/05 05:51:03;;;;;;;;;;;;;;;15.00;39.37;101942.66;7349091;19;19922;-60
2023/06/05 05:53:28;;;;;;;;;;;;;;;15.42;39.41;101997.94;7348535;19;19931;-60
2023/06/05 05:55:54;;;;;;;;;;;;;;;15.45;39.19;102003.09;7349928;19;19953;-60
2023/06/05 05:58:19;;;;;;;;;;;;;;;15.49;39.00;101995.09;7342466;19;19915;-61
2023/06/05 06:00:45;;;;;;;;;;;;;;;15.54;39.03;101995.88;7351543;19;20585;-61
2023/06/05 06:03:11;;;;;;;;;;;;;;;15.59;38.80;101998.41;7350863;19;19919;-60
2023/06/05 06:05:37;;;;;;;;;;;;;;;15.63;39.09;101994.84;7356972;19;19918;-60
2023/06/05 06:08:03;;;;;;;;;;;;;;;15.67;38.64;101999.13;7357045;19;19958;-60
2023/06/05 06:10:28;;;;;;;;;;;;;;;15.73;38.79;102003.38;7356761;19;20462;-60
2023/06/05 06:12:54;;;;;;;;;;;;;;;15.76;38.90;102001.56;7357984;19;19997;-60
2023/06/05 06:15:19;;;;;;;;;;;;;;;15.82;38.92;102001.41;7357135;19;19915;-60
2023/06/05 06:17:44;;;;;;;;;;;;;;;15.87;38.64;101992.53;7358595;19;19922;-61
2023/06/05 06:20:12;;;;;;;;;;;;;;;15.92;38.36;102006.47;7354726;19;19918;-61
2023/06/05 06:22:38;;;;;;;;;;;;;;;15.97;38.29;102000.19;7354653;19;19922;-60
2023/06/05 06:25:03;;;;;;;;;;;;;;;16.01;38.30;102000.94;7351376;19;21709;-61
2023/06/05 06:27:29;;;;;;;;;;;;;;;16.08;38.42;102002.53;7356788;19;19996;-60
2023/06/05 06:29:54;;;;;;;;;;;;;;;16.13;38.35;102003.28;7358963;19;19969;-60
2023/06/05 06:32:20;;;;;;;;;;;;;;;16.18;38.74;102004.03;7350059;19;19918;-60
2023/06/05 06:34:45;;;;;;;;;;;;;;;16.24;38.57;102003.88;7357699;19;19918;-60
2023/06/05 06:37:17;;;;;;;;;;;;;;;16.29;38.93;102009.03;7353723;19;19911;-61
2023/06/05 06:39:42;;;;;;;;;;;;;;;16.37;38.73;102008.81;7355579;19;20416;-60
2023/06/05 06:42:12;;;;;;;;;;;;;;;16.43;38.93;102006.06;7358434;19;19918;-60
2023/06/05 06:44:37;;;;;;;;;;;;;;;16.49;38.97;102005.88;7355723;19;19923;-60
2023/06/05 06:47:02;;;;;;;;;;;;;;;16.55;39.08;102008.34;7353727;19;19915;-61
2023/06/05 06:49:28;;;;;;;;;;;;;;;16.61;39.03;102008.19;7353918;19;19915;-61
2023/06/05 06:51:53;;;;;;;;;;;;;;;16.66;39.10;102006.28;7353121;19;20295;-61
2023/06/05 06:54:18;;;;;;;;;;;;;;;16.74;39.62;102012.25;7353715;19;19943;-61
2023/06/05 06:56:44;;;;;;;;;;;;;;;16.79;39.56;101999.81;7355610;19;19957;-60
2023/06/05 06:59:13;;;;;;;;;;;;;;;16.86;39.38;102013.69;7353390;19;20031;-60
2023/06/05 07:01:48;;;;;;;;;;;;;;;16.93;39.41;102009.09;7358154;19;19926;-60
2023/06/05 07:04:19;;;;;;;;;;;;;;;16.99;39.56;102008.94;7354415;19;20459;-61
2023/06/05 07:06:45;;;;;;;;;;;;;;;17.06;39.78;102015.78;7356204;19;19919;-60
2023/06/05 07:09:10;;;;;;;;;;;;;;;17.12;39.88;102015.59;7353984;19;19931;-61
2023/06/05 07:11:36;;;;;;;;;;;;;;;17.17;39.89;102008.41;7357233;19;19926;-61
2023/06/05 07:14:01;;;;;;;;;;;;;;;17.23;40.02;102005.56;7356132;19;19944;-60
2023/06/05 07:16:26;;;;;;;;;;;;;;;17.29;40.16;102013.34;7345722;19;19938;-61
2023/06/05 07:18:53;;;;;;;;;;;;;;;17.35;39.94;102017.56;7356776;19;19919;-61
2023/06/05 07:21:18;;;;;;;;;;;;;;;17.41;40.15;102011.22;7353301;19;20051;-60
2023/06/05 07:23:44;;;;;;;;;;;;;;;17.47;40.23;102021.59;7357984;19;20010;-61
2023/06/05 07:26:09;;;;;;;;;;;;;;;17.53;40.05;102013.47;7353838;19;20329;-60
2023/06/05 07:28:35;;;;;;;;;;;;;;;17.58;40.25;102014.19;7356153;19;19922;-60
2023/06/05 07:31:03;;;;;;;;;;;;;;;17.64;40.23;102016.69;7354672;19;20402;-61
2023/06/05 07:33:28;;;;;;;;;;;;;;;17.71;40.27;102019.97;7353355;19;19932;-61
2023/06/05 07:35:54;;;;;;;;;;;;;;;17.76;40.24;102020.75;7353173;19;19927;-61
2023/06/05 07:38:19;;;;;;;;;;;;;;;17.81;40.36;102017.03;7358326;19;20462;-61
2023/06/05 07:40:45;;;;;;;;;;;;;;;17.87;39.95;102022.13;7355110;19;19929;-61
2023/06/05 07:43:13;;;;;;;;;;;;;;;17.94;39.51;102019.28;7349807;19;19923;-61
2023/06/05 07:45:39;;;;;;;;;;;;;;;18.00;40.00;102006.75;7355765;19;20314;-60
2023/06/05 07:48:04;;;;;;;;;;;;;;;18.06;40.75;102016.25;7359320;19;19939;-61
2023/06/05 07:50:30;;;;;;;;;;;;;;;18.12;40.51;102018.69;7353805;19;19930;-60
2023/06/05 07:52:55;;;;;;;;;;;;;;;18.18;40.91;102021.13;7358296;19;20479;-61
2023/06/05 07:55:20;;;;;;;;;;;;;;;18.24;40.54;102020.91;7353878;19;19937;-61
2023/06/05 07:57:46;;;;;;;;;;;;;;;18.30;40.81;102017.22;7356529;19;19931;-61
2023/06/05 08:00:11;;;;;;;;;;;;;;;18.36;40.01;102015.22;7350909;19;20332;-61
2023/06/05 08:02:37;;;;;;;;;;;;;;;18.43;40.42;102015.84;7334343;19;19918;-61
2023/06/05 08:05:02;;;;;;;;;;;;;;;18.48;40.77;102018.34;7357461;19;20783;-61
2023/06/05 08:07:28;;;;;;;;;;;;;;;18.54;41.28;102019.00;7354959;19;20348;-60
2023/06/05 08:09:53;;;;;;;;;;;;;;;18.59;41.24;102016.19;7351371;19;19940;-61
2023/06/05 08:12:18;;;;;;;;;;;;;;;18.66;40.83;102023.00;7358737;19;20660;-61
2023/06/05 08:14:43;;;;;;;;;;;;;;;18.71;40.37;102018.44;7355197;19;19930;-60
2023/06/05 08:17:09;;;;;;;;;;;;;;;18.77;40.98;102018.22;7338888;19;19915;-60
2023/06/05 08:19:34;;;;;;;;;;;;;;;18.82;40.49;102021.56;7354568;19;19935;-61
2023/06/05 08:22:00;;;;;;;;;;;;;;;18.88;40.21;102023.97;7353264;19;19930;-61
2023/06/05 08:24:28;;;;;;;;;;;;;;;18.93;40.38;102027.34;7352345;19;20366;-61
2023/06/05 08:26:53;;;;;;;;;;;;;;;19.00;40.20;102029.75;7355160;19;19994;-61
2023/06/05 08:29:18;;;;;;;;;;;;;;;19.04;40.32;102029.56;7354907;19;20004;-61
2023/06/05 08:31:44;;;;;;;;;;;;;;;19.09;40.58;102026.75;7356969;19;19918;-61
2023/06/05 08:34:10;;;;;;;;;;;;;;;19.13;40.56;102028.38;7351544;19;19935;-61
2023/06/05 08:36:35;;;;;;;;;;;;;;;19.17;41.08;102030.00;7353957;19;19919;-60
2023/06/05 08:39:01;;;;;;;;;;;;;;;19.23;41.18;102026.25;7355659;19;19919;-61
2023/06/05 08:41:26;;;;;;;;;;;;;;;19.27;41.14;102026.09;7351182;19;19952;-61
2023/06/05 08:43:52;;;;;;;;;;;;;;;19.32;40.64;102026.78;7353899;19;19925;-61
2023/06/05 08:46:17;;;;;;;;;;;;;;;19.38;40.54;102023.88;7356407;19;19923;-61
2023/06/05 08:48:44;;;;;;;;;;;;;;;19.43;40.38;102021.06;7356108;19;19923;-61
2023/06/05 08:51:11;;;;;;;;;;;;;;;19.50;41.06;102032.28;7352060;19;20466;-61
2023/06/05 08:53:38;;;;;;;;;;;;;;;19.55;41.30;102025.00;7358654;19;20330;-60
2023/06/05 08:56:04;;;;;;;;;;;;;;;19.59;40.93;102021.31;7355382;19;19941;-61
2023/06/05 08:58:29;;;;;;;;;;;;;;;19.64;40.28;102030.00;7356257;19;19919;-57
2023/06/05 09:00:56;;;;;;;;;;;;;;;19.69;40.79;102033.31;7353737;19;19927;-57
2023/06/05 09:03:21;;;;;;;;;;;;;;;19.42;40.87;101977.81;7351016;19;19919;-58
2023/06/05 09:05:47;;;;;;;;;;;;;;;19.78;41.12;102032.97;7348069;19;19925;-57
2023/06/05 09:08:14;;;;;;;;;;;;;;;19.83;40.86;102033.63;7337751;19;20719;-57
2023/06/05 09:10:39;;;;;;;;;;;;;;;19.89;39.42;102030.75;7353307;19;20635;-58
2023/06/05 09:13:04;;;;;;;;;;;;;;;19.93;39.70;102031.47;7356344;19;19911;-57
2023/06/05 09:15:31;;;;;;;;;;;;;;;19.98;40.57;102033.94;7352945;19;20897;-57
2023/06/05 09:18:07;;;;;;;;;;;;;;;20.01;40.18;102033.81;7347638;19;20651;-57
2023/06/05 09:20:34;;;;;;;;;;;;;;;20.04;40.11;102029.25;7350195;19;19930;-57
2023/06/05 09:23:00;;;;;;;;;;;;;;;20.09;39.66;102031.72;7339458;19;20657;-58
2023/06/05 09:25:28;;;;;;;;;;;;;;;20.15;40.42;102032.31;7352782;19;19926;-57
2023/06/05 09:28:14;;;;;;;;;;;;;;;20.26;39.90;102034.50;7350696;19;19926;-57
2023/06/05 09:31:00;;;;;;;;;;;;;;;20.44;39.54;102044.38;7353042;19;20340;-57
2023/06/05 09:33:26;;;;;;;;;;;;;;;20.70;39.27;102034.44;7351177;19;19923;-57
2023/06/05 09:36:03;;;;;;;;;;;;;;;20.94;39.56;102038.66;7352991;19;19929;-57
2023/06/05 09:38:29;;;;;;;;;;;;;;;21.22;39.65;102035.59;7353210;19;19922;-58
2023/06/05 09:41:01;;;;;;;;;;;;;;;21.49;39.25;102032.63;7353224;19;20271;-58
2023/06/05 09:43:26;;;;;;;;;;;;;;;21.78;39.49;102036.56;7353670;19;19918;-58
2023/06/05 09:45:51;;;;;;;;;;;;;;;22.06;39.53;102038.75;7351772;19;20627;-58
2023/06/05 09:48:17;;;;;;;;;;;;;;;22.36;39.62;102047.00;7347587;19;19927;-57
2023/06/05 09:50:42;;;;;;;;;;;;;;;22.68;39.26;102044.50;7352684;19;19918;-57
2023/06/05 09:53:14;;;;;;;;;;;;;;;23.00;39.12;102050.81;7351652;19;20463;-58
2023/06/05 09:55:39;;;;;;;;;;;;;;;23.33;39.13;102052.59;7343787;19;19930;-58
2023/06/05 09:58:10;;;;;;;;;;;;;;;23.64;39.31;102057.13;7351482;19;19933;-58
2023/06/05 10:00:38;;;;;;;;;;;;;;;23.95;39.23;102051.75;7347256;19;20245;-57
2023/06/05 10:03:05;;;;;;;;;;;;;;;24.30;39.17;102054.19;7352804;19;20332;-58
2023/06/05 10:05:32;;;;;;;;;;;;;;;24.65;39.27;102056.59;7351612;19;19932;-58
2023/06/05 10:07:57;;;;;;;;;;;;;;;24.99;39.04;102050.94;7351269;19;21345;-58
2023/06/05 10:10:22;;;;;;;;;;;;;;;25.34;38.56;102051.41;7351132;19;19935;-58
2023/06/05 10:12:48;;;;;;;;;;;;;;;25.72;38.69;102055.25;7353125;19;19929;-58
2023/06/05 10:15:14;;;;;;;;;;;;;;;26.08;38.44;102054.66;7348253;19;19914;-58
2023/06/05 10:17:41;;;;;;;;;;;;;;;26.42;37.99;102047.94;7352308;19;19915;-57
2023/06/05 10:20:07;;;;;;;;;;;;;;;26.78;37.67;102046.38;7349483;19;19919;-58
2023/06/05 10:22:34;;;;;;;;;;;;;;;27.14;37.41;102049.16;7354058;19;19947;-58
2023/06/05 10:25:03;;;;;;;;;;;;;;;27.50;37.38;102049.28;7349959;19;19918;-58
2023/06/05 10:27:47;;;;;;;;;;;;;;;27.85;37.06;102052.09;7349579;19;20706;-58
2023/06/05 10:30:12;;;;;;;;;;;;;;;28.24;36.69;102060.81;7346282;19;19919;-58
2023/06/05 10:32:44;;;;;;;;;;;;;;;28.56;36.49;102050.31;7348430;19;20288;-57
2023/06/05 10:35:28;;;;;;;;;;;;;;;28.91;36.02;102056.47;7346076;19;19919;-59
2023/06/05 10:38:03;;;;;;;;;;;;;;;29.26;35.74;102060.06;7348465;19;20671;-58
2023/06/05 10:40:29;;;;;;;;;;;;;;;29.59;35.23;102057.34;7349181;19;19915;-58
2023/06/05 10:43:15;;;;;;;;;;;;;;;29.88;34.95;102056.78;7350884;19;19942;-58
2023/06/05 10:45:40;;;;;;;;;;;;;;;30.18;35.02;102058.78;7249050;19;2004360;-58
2023/06/05 10:48:06;;;;;;;;;;;;;;;30.48;34.30;102060.72;7350578;19;20612;-58
2023/06/05 10:50:31;;;;;;;;;;;;;;;30.79;34.48;102050.00;7349292;19;19944;-58
2023/06/05 10:52:57;;;;;;;;;;;;;;;31.09;34.50;102055.41;7360076;19;19928;-58
2023/06/05 10:55:23;;;;;;;;;;;;;;;31.42;33.75;102061.50;7351620;19;20423;-58
2023/06/05 10:58:01;;;;;;;;;;;;;;;31.74;34.01;102062.16;7357811;19;19918;-58
2023/06/05 11:00:30;;;;;;;;;;;;;;;32.05;33.08;102069.31;7349583;19;20624;-58
2023/06/05 11:02:55;;;;;;;;;;;;;;;32.32;32.92;102065.88;7354184;19;19931;-58
2023/06/05 11:05:21;;;;;;;;;;;;;;;32.60;33.10;102081.25;7354024;19;19933;-58
2023/06/05 11:07:47;;;;;;;;;;;;;;;32.88;32.55;102056.97;7357567;19;19933;-58
2023/06/05 11:10:22;;;;;;;;;;;;;;;33.14;32.18;102068.84;7354691;19;20632;-58
2023/06/05 11:12:50;;;;;;;;;;;;;;;33.43;32.36;102076.88;7352299;19;19999;-58
2023/06/05 11:15:33;;;;;;;;;;;;;;;33.72;32.00;102071.28;7354466;19;19923;-59
2023/06/05 11:18:18;;;;;;;;;;;;;;;34.06;31.34;102070.59;7352912;19;20343;-59
2023/06/05 11:20:47;;;;;;;;;;;;;;;34.39;31.09;102068.19;7333643;19;19915;-58
2023/06/05 11:23:12;;;;;;;;;;;;;;;34.52;30.63;102038.78;7351779;19;19918;-59
2023/06/05 11:25:38;;;;;;;;;;;;;;;34.99;30.11;102057.44;7353866;19;19922;-58
2023/06/05 11:28:08;;;;;;;;;;;;;;;35.27;30.83;102061.59;7352890;19;19931;-58
2023/06/05 11:30:44;;;;;;;;;;;;;;;35.57;29.81;102062.06;7353668;19;19931;-59
2023/06/05 11:33:12;;;;;;;;;;;;;;;35.87;30.66;102069.59;7349375;19;19917;-58
2023/06/05 11:35:38;;;;;;;;;;;;;;;36.17;29.48;102069.16;7353388;19;20266;-59
2023/06/05 11:38:22;;;;;;;;;;;;;;;36.41;28.65;102066.44;7352466;19;19923;-58
2023/06/05 11:40:47;;;;;;;;;;;;;;;36.68;28.48;102067.09;7353222;19;19915;-59
2023/06/05 11:43:13;;;;;;;;;;;;;;;36.94;29.07;102061.44;7348311;19;19911;-59
2023/06/05 11:45:48;;;;;;;;;;;;;;;37.20;28.06;102064.72;7349386;19;19922;-58
2023/06/05 11:48:14;;;;;;;;;;;;;;;37.50;28.84;102063.06;7349697;19;20002;-59
2023/06/05 11:50:59;;;;;;;;;;;;;;;37.77;27.57;102056.28;7355599;19;19923;-58
2023/06/05 11:53:25;;;;;;;;;;;;;;;38.07;27.49;102067.31;7350252;19;19911;-58
2023/06/05 11:58:23;;;;;;;;;;;;;;;38.48;27.26;102067.00;7350716;19;20621;-58
2023/06/05 12:00:49;;;;;;;;;;;;;;;38.65;26.95;102066.63;7353090;19;19914;-58
2023/06/05 12:03:21;;;;;;;;;;;;;;;38.84;26.81;102062.53;7349497;19;20479;-58
2023/06/05 12:05:49;;;;;;;;;;;;;;;39.08;26.26;102057.78;7351803;19;19933;-59
2023/06/05 12:08:29;;;;;;;;;;;;;;;39.33;25.88;102067.38;7340913;19;19934;-59
2023/06/05 12:10:56;;;;;;;;;;;;;;;39.62;25.86;102063.72;7351250;19;19915;-59
2023/06/05 12:13:21;;;;;;;;;;;;;;;39.90;25.40;102077.53;7348312;19;19915;-59
2023/06/05 12:15:57;;;;;;;;;;;;;;;40.16;25.65;102067.88;7352559;19;19926;-59
2023/06/05 12:18:30;;;;;;;;;;;;;;;40.42;25.25;102073.56;7345254;19;20157;-59
2023/06/05 12:20:55;;;;;;;;;;;;;;;40.65;25.11;102073.31;7349885;19;19919;-58
2023/06/05 12:23:22;;;;;;;;;;;;;;;40.86;24.83;102072.41;7352334;19;19919;-59
2023/06/05 12:25:57;;;;;;;;;;;;;;;41.05;23.83;102068.09;7352483;19;20531;-59
2023/06/05 12:28:23;;;;;;;;;;;;;;;41.25;23.76;102062.72;7351270;19;19926;-59
2023/06/05 12:30:48;;;;;;;;;;;;;;;41.44;24.59;102061.97;7353853;19;19938;-58
2023/06/05 12:33:14;;;;;;;;;;;;;;;41.58;23.22;102060.09;7347838;19;19943;-58
2023/06/05 12:35:39;;;;;;;;;;;;;;;41.73;23.37;102059.94;7348892;19;20391;-59
2023/06/05 12:38:05;;;;;;;;;;;;;;;41.85;23.31;102051.94;7339162;19;19915;-59